createdAt,value
2018-11-07T00:00:39.138Z,16.20
2018-11-07T00:03:07.764Z,14.80
2018-11-07T00:05:36.396Z,13.97
2018-11-07T00:08:05.237Z,16.40
2018-11-07T00:10:34.819Z,14.03
2018-11-07T00:13:05.183Z,14.43
2018-11-07T00:18:19.598Z,16.00
2018-11-07T00:20:48.755Z,14.77
2018-11-07T00:23:19.278Z,15.57
2018-11-07T00:25:49.037Z,13.93
2018-11-07T00:28:20.228Z,14.90
2018-11-07T00:30:48.856Z,13.67
2018-11-07T00:33:19.484Z,15.40
2018-11-07T00:35:55.024Z,15.43
2018-11-07T00:38:23.795Z,17.83
2018-11-07T00:40:53.119Z,14.83
2018-11-07T00:43:21.669Z,13.17
2018-11-07T00:45:50.712Z,14.13
2018-11-07T00:48:19.297Z,12.50
2018-11-07T00:50:48.029Z,12.63
2018-11-07T00:53:16.473Z,14.63
2018-11-07T00:55:44.909Z,14.20
2018-11-07T00:58:13.529Z,13.23
2018-11-07T01:00:42.108Z,13.53
2018-11-07T01:03:11.496Z,13.37
2018-11-07T01:05:40.267Z,13.30
2018-11-07T01:08:08.745Z,13.33
2018-11-07T01:10:39.040Z,14.33
2018-11-07T01:13:07.572Z,13.27
2018-11-07T01:15:36.269Z,15.07
2018-11-07T01:18:05.381Z,14.90
2018-11-07T01:20:36.824Z,14.23
2018-11-07T01:23:05.454Z,12.07
2018-11-07T01:25:33.903Z,17.30
2018-11-07T01:28:02.423Z,12.23
2018-11-07T01:30:38.005Z,14.97
2018-11-07T01:33:06.836Z,13.03
2018-11-07T01:35:35.684Z,13.43
2018-11-07T01:38:05.628Z,11.60
2018-11-07T01:40:42.189Z,13.23
2018-11-07T01:43:11.108Z,13.90
2018-11-07T01:45:40.757Z,13.00
2018-11-07T01:48:09.501Z,12.43
2018-11-07T01:50:38.076Z,12.47
2018-11-07T01:53:06.909Z,15.60
2018-11-07T01:55:35.568Z,12.53
2018-11-07T01:58:05.849Z,13.37
2018-11-07T02:00:34.536Z,13.43
2018-11-07T02:03:04.029Z,13.67
2018-11-07T02:05:32.636Z,14.20
2018-11-07T02:08:01.827Z,13.57
2018-11-07T02:10:30.520Z,14.03
2018-11-07T02:13:00.889Z,13.37
2018-11-07T02:15:29.657Z,16.67
2018-11-07T02:17:59.185Z,14.27
2018-11-07T02:20:27.742Z,15.70
2018-11-07T02:22:56.982Z,12.93
2018-11-07T02:25:26.693Z,13.17
2018-11-07T02:27:57.127Z,13.77
2018-11-07T02:30:26.313Z,16.30
2018-11-07T02:32:56.757Z,13.77
2018-11-07T02:35:25.797Z,15.23
2018-11-07T02:37:54.601Z,13.07
2018-11-07T02:40:23.229Z,15.80
2018-11-07T02:42:51.786Z,13.27
2018-11-07T02:45:20.381Z,12.30
2018-11-07T03:15:55.194Z,12.43
2018-11-07T04:30:41.728Z,12.43
2018-11-07T04:36:53.468Z,13.93
2018-11-07T04:39:44.036Z,14.67
2018-11-07T04:42:39.559Z,12.97
2018-11-07T04:45:50.102Z,14.43
2018-11-07T17:16:59.522Z,5.07
2018-11-07T17:19:34.200Z,3.13
2018-11-07T17:22:03.745Z,3.57
2018-11-07T17:24:35.612Z,2.83
2018-11-07T17:27:03.814Z,2.20
2018-11-07T17:29:32.194Z,2.07
2018-11-07T17:32:03.491Z,4.17
2018-11-07T17:34:33.326Z,3.30
2018-11-07T17:37:02.464Z,4.13
2018-11-07T17:39:35.241Z,4.40
2018-11-07T17:42:07.222Z,4.17
2018-11-07T17:45:21.478Z,2.70
2018-11-07T17:47:52.970Z,3.87
2018-11-07T17:50:35.534Z,3.67
2018-11-07T17:53:04.057Z,3.73
2018-11-07T17:55:32.609Z,2.40
2018-11-07T17:58:01.296Z,2.30
2018-11-07T18:00:34.019Z,3.93
2018-11-07T18:03:02.541Z,2.50
2018-11-07T18:05:31.341Z,2.47
2018-11-07T18:08:06.429Z,7.13
2018-11-07T18:10:34.994Z,3.43
2018-11-07T18:13:03.330Z,5.00
2018-11-07T18:15:31.652Z,4.67
2018-11-07T18:18:00.024Z,5.27
2018-11-07T18:20:28.357Z,8.83
2018-11-07T18:22:56.753Z,7.60
2018-11-07T18:25:25.177Z,5.77
2018-11-07T18:28:10.338Z,4.30
2018-11-07T18:30:39.193Z,3.80
2018-11-07T18:33:07.981Z,3.40
2018-11-07T18:35:36.614Z,2.67
2018-11-07T18:38:05.525Z,4.10
2018-11-07T18:40:36.026Z,4.77
2018-11-07T18:43:04.515Z,5.13
2018-11-07T18:45:32.906Z,6.50
2018-11-07T18:48:01.726Z,3.23
2018-11-07T18:50:30.114Z,4.47
2018-11-07T18:52:58.474Z,6.70
2018-11-07T18:55:26.918Z,5.70
2018-11-07T18:57:55.679Z,8.03
2018-11-07T19:00:25.237Z,6.20
2018-11-07T19:02:53.658Z,4.60
2018-11-07T19:05:22.274Z,3.63
2018-11-07T19:07:50.578Z,3.50
2018-11-07T19:10:20.669Z,3.57
2018-11-07T19:12:49.837Z,4.93
2018-11-07T19:15:18.682Z,4.33
2018-11-07T19:17:48.111Z,2.73
2018-11-07T19:20:17.122Z,3.67
2018-11-07T19:22:45.494Z,2.43
2018-11-07T19:25:22.366Z,3.53
2018-11-07T19:27:52.111Z,2.93
2018-11-07T19:30:21.861Z,3.77
2018-11-07T19:32:51.285Z,3.43
2018-11-07T19:35:20.589Z,4.07
2018-11-07T19:37:50.074Z,2.50
2018-11-07T19:40:20.085Z,2.53
2018-11-07T19:42:48.613Z,2.63
2018-11-07T19:45:18.907Z,4.40
2018-11-07T19:47:53.775Z,5.40
2018-11-07T19:50:26.742Z,2.73
2018-11-07T19:52:55.694Z,2.90
2018-11-07T19:55:25.312Z,3.00
2018-11-07T19:58:02.235Z,2.70
2018-11-07T20:00:31.373Z,5.10
2018-11-07T20:03:00.003Z,3.77
2018-11-07T20:05:28.501Z,2.67
2018-11-07T20:07:57.014Z,4.67
2018-11-07T20:10:25.503Z,6.07
2018-11-07T20:12:53.859Z,3.83
2018-11-07T20:15:22.391Z,4.23
2018-11-07T20:17:50.942Z,5.23
2018-11-07T20:20:19.327Z,7.13
2018-11-07T20:22:47.742Z,7.00
2018-11-07T20:25:16.376Z,3.87
2018-11-07T20:27:49.294Z,5.23
2018-11-07T20:30:19.211Z,4.27
2018-11-07T20:32:47.571Z,4.10
2018-11-07T20:35:19.064Z,4.27
2018-11-07T20:37:47.405Z,5.63
2018-11-07T20:40:17.161Z,5.43
2018-11-07T20:42:45.663Z,4.13
2018-11-07T20:45:15.112Z,6.17
2018-11-07T20:47:43.528Z,5.77
2018-11-07T20:50:13.536Z,4.90
2018-11-07T20:52:43.503Z,4.10
2018-11-07T20:55:12.945Z,5.53
2018-11-07T20:57:42.278Z,5.90
2018-11-07T21:00:15.284Z,7.37
2018-11-07T21:02:44.028Z,6.27
2018-11-07T21:05:13.768Z,7.27
2018-11-07T21:07:42.631Z,7.63
2018-11-07T21:10:23.231Z,6.23
2018-11-07T21:12:55.259Z,5.37
2018-11-07T21:15:31.280Z,5.27
2018-11-07T21:18:00.052Z,6.10
2018-11-07T21:20:33.871Z,6.27
2018-11-07T21:23:03.087Z,3.97
2018-11-07T21:25:31.716Z,5.07
2018-11-07T21:28:05.044Z,4.10
2018-11-07T21:30:38.754Z,3.93
2018-11-07T21:33:14.185Z,3.53
2018-11-07T21:35:45.996Z,4.37
2018-11-07T21:38:22.488Z,4.13
2018-11-07T21:40:51.288Z,3.77
2018-11-07T21:43:27.193Z,4.33
2018-11-07T21:46:15.409Z,3.63
2018-11-07T21:48:44.380Z,3.70
2018-11-07T21:51:13.268Z,4.30
2018-11-07T21:53:59.508Z,4.33
2018-11-07T21:56:38.781Z,4.03
2018-11-07T21:59:13.592Z,3.83
2018-11-07T22:01:52.532Z,3.63
2018-11-07T22:04:44.980Z,3.07
2018-11-07T22:07:27.925Z,3.70
2018-11-07T22:09:56.673Z,4.07
2018-11-07T22:12:26.017Z,2.83
2018-11-07T22:14:54.885Z,2.90
2018-11-07T22:17:27.465Z,3.07
2018-11-07T22:19:56.164Z,2.80
2018-11-07T22:22:24.896Z,3.30
2018-11-07T22:24:59.713Z,3.80
2018-11-07T22:27:28.542Z,4.03
2018-11-07T22:29:57.239Z,3.17
2018-11-07T22:32:26.042Z,3.20
2018-11-07T22:35:00.224Z,3.07
2018-11-07T22:37:30.286Z,3.10
2018-11-07T22:39:59.141Z,3.87
2018-11-07T22:42:35.360Z,2.93
2018-11-07T22:45:18.616Z,4.17
2018-11-07T22:48:06.124Z,4.13
2018-11-07T22:50:42.592Z,3.43
2018-11-07T22:53:11.482Z,3.03
2018-11-07T22:55:40.410Z,3.10
2018-11-07T22:58:09.286Z,4.47
2018-11-07T23:00:44.326Z,4.60
2018-11-07T23:03:13.605Z,3.87
2018-11-07T23:05:42.281Z,2.97
2018-11-07T23:08:15.509Z,4.73
2018-11-07T23:10:44.413Z,4.50
2018-11-07T23:13:13.269Z,3.30
2018-11-07T23:15:49.821Z,4.97
2018-11-07T23:18:27.210Z,3.83
2018-11-07T23:20:56.134Z,3.03
2018-11-07T23:23:52.785Z,4.63
2018-11-07T23:29:01.375Z,4.97
2018-11-07T23:31:39.175Z,3.23
2018-11-07T23:34:24.047Z,5.43
2018-11-07T23:36:54.181Z,3.43
2018-11-07T23:39:23.818Z,3.07
2018-11-07T23:41:56.472Z,2.73
2018-11-07T23:44:33.598Z,3.30
2018-11-07T23:47:02.532Z,2.90
2018-11-07T23:49:32.131Z,3.20
2018-11-07T23:52:03.793Z,3.63
2018-11-07T23:54:40.362Z,4.07
2018-11-07T23:57:09.967Z,3.73
